Map

Track Data

SID SEASON NUMBER BASIN SUBBASIN NAME ISO_TIME NATURE LAT LON WMO_WIND WMO_PRES WMO_AGENCY TRACK_TYPE DIST2LAND LANDFALL IFLAG USA_AGENCY USA_ATCF_ID USA_LAT USA_LON USA_RECORD USA_STATUS USA_WIND USA_PRES USA_SSHS USA_R34_NE USA_R34_SE USA_R34_SW USA_R34_NW USA_R50_NE USA_R50_SE USA_R50_SW USA_R50_NW USA_R64_NE USA_R64_SE USA_R64_SW USA_R64_NW USA_POCI USA_ROCI USA_RMW USA_EYE TOKYO_LAT TOKYO_LON TOKYO_GRADE TOKYO_WIND TOKYO_PRES TOKYO_R50_DIR TOKYO_R50_LONG TOKYO_R50_SHORT TOKYO_R30_DIR TOKYO_R30_LONG TOKYO_R30_SHORT TOKYO_LAND CMA_LAT CMA_LON CMA_CAT CMA_WIND CMA_PRES HKO_LAT HKO_LON HKO_CAT HKO_WIND HKO_PRES NEWDELHI_LAT NEWDELHI_LON NEWDELHI_GRADE NEWDELHI_WIND NEWDELHI_PRES NEWDELHI_CI NEWDELHI_DP NEWDELHI_POCI REUNION_LAT REUNION_LON REUNION_TYPE REUNION_WIND REUNION_PRES REUNION_TNUM REUNION_CI REUNION_RMW REUNION_R34_NE REUNION_R34_SE REUNION_R34_SW REUNION_R34_NW REUNION_R50_NE REUNION_R50_SE REUNION_R50_SW REUNION_R50_NW REUNION_R64_NE REUNION_R64_SE REUNION_R64_SW REUNION_R64_NW BOM_LAT BOM_LON BOM_TYPE BOM_WIND BOM_PRES BOM_TNUM BOM_CI BOM_RMW BOM_R34_NE BOM_R34_SE BOM_R34_SW BOM_R34_NW BOM_R50_NE BOM_R50_SE BOM_R50_SW BOM_R50_NW BOM_R64_NE BOM_R64_SE BOM_R64_SW BOM_R64_NW BOM_ROCI BOM_POCI BOM_EYE BOM_POS_METHOD BOM_PRES_METHOD NADI_LAT NADI_LON NADI_CAT NADI_WIND NADI_PRES WELLINGTON_LAT WELLINGTON_LON WELLINGTON_WIND WELLINGTON_PRES DS824_LAT DS824_LON DS824_STAGE DS824_WIND DS824_PRES TD9636_LAT TD9636_LON TD9636_STAGE TD9636_WIND TD9636_PRES TD9635_LAT TD9635_LON TD9635_WIND TD9635_PRES TD9635_ROCI NEUMANN_LAT NEUMANN_LON NEUMANN_CLASS NEUMANN_WIND NEUMANN_PRES MLC_LAT MLC_LON MLC_CLASS MLC_WIND MLC_PRES USA_GUST BOM_GUST BOM_GUST_PER REUNION_GUST REUNION_GUST_PER USA_SEAHGT USA_SEARAD_NE USA_SEARAD_SE USA_SEARAD_SW USA_SEARAD_NW STORM_SPEED STORM_DIR
1949335N06138 1949 102 WP MM BETTY 1949-12-01 00:00:00 TS 6.20000 138.300 main 828 814 O________O_O__ jtwc_wp WP211949 6.20000 138.300 20 -1 6.20000 138.300 TC 20 6.20000 138.300 20 1007 120 9 276
1949335N06138 1949 102 WP MM BETTY 1949-12-01 03:00:00 TS 6.25012 137.833 main 821 809 P________P_P__ WP211949 6.25012 137.833 20 -1 6.25012 137.833 TC 20 6.25012 137.833 20 1007 150 9 276
1949335N06138 1949 102 WP MM BETTY 1949-12-01 06:00:00 TS 6.30000 137.400 main 809 799 O________O_O__ jtwc_wp WP211949 6.30000 137.400 20 -1 6.30000 137.400 TC 20 6.30000 137.400 20 1007 180 8 277
1949335N06138 1949 102 WP MM BETTY 1949-12-01 09:00:00 TS 6.34989 137.015 main 799 799 P________P_P__ WP211949 6.34989 137.015 20 -1 6.34989 137.015 TC 20 6.34989 137.015 20 1006 240 8 277
1949335N06138 1949 102 WP MM BETTY 1949-12-01 12:00:00 TS 6.40000 136.600 main 803 797 O________O_O__ jtwc_wp WP211949 6.40000 136.600 20 -1 6.40000 136.600 TC 20 6.40000 136.600 20 1006 300 10 276
1949335N06138 1949 102 WP MM BETTY 1949-12-01 15:00:00 TS 6.45007 136.050 main 808 806 P________P_P__ WP211949 6.45007 136.050 22 -1 6.45007 136.050 TC 22 6.45007 136.050 22 1006 270 11 275
1949335N06138 1949 102 WP MM BETTY 1949-12-01 18:00:00 TS 6.50000 135.500 main 806 806 O________O_O__ jtwc_wp WP211949 6.50000 135.500 25 -1 6.50000 135.500 TC 25 6.50000 135.500 25 1006 240 10 276
1949335N06138 1949 102 WP MM BETTY 1949-12-01 21:00:00 TS 6.54985 135.100 main 807 799 P________P_P__ WP211949 6.54985 135.100 25 -1 6.54985 135.100 TC 25 6.54985 135.100 25 1005 210 9 279
1949335N06138 1949 102 WP MM BETTY 1949-12-02 00:00:00 TS 6.63846 134.608 main 799 761 O_O______O_O__ jtwc_wp WP211949 6.60000 134.700 25 -1 7.10000 133.500 0 1000 6.60000 134.700 TC 25 6.60000 134.700 25 1005 180 11 279
1949335N06138 1949 102 WP MM BETTY 1949-12-02 03:00:00 TS 6.72146 134.050 main 753 718 P_P______P_P__ WP211949 6.65003 134.165 27 -1 7.15001 133.358 0 1000 6.65003 134.165 TC 27 6.65003 134.165 27 1004 210 11 279
1949335N06138 1949 102 WP MM BETTY 1949-12-02 06:00:00 TS 6.80000 133.520 main 718 693 O_O______O_O__ jtwc_wp WP211949 6.70000 133.600 30 -1 7.20000 133.200 1 29 1000 6.70000 133.600 TC 30 6.70000 133.600 30 1003 240 10 279
1949335N06138 1949 102 WP MM BETTY 1949-12-02 09:00:00 TS 6.86932 133.073 main 693 663 P_P______P_P__ WP211949 6.74243 133.092 35 0 7.24999 133.015 1 33 998 6.74243 133.092 TC 35 6.74243 133.092 35 1001 270 9 280
1949335N06138 1949 102 WP MM BETTY 1949-12-02 12:00:00 TS 6.94118 132.671 main 663 629 O_O______OOO__ jtwc_wp WP211949 6.80000 132.600 40 0 7.30000 132.800 2 38 997 6.80000 132.600 TC 40 7.20000 133.000 2 40 6.80000 132.600 40 999 300 8 283
1949335N06138 1949 102 WP MM BETTY 1949-12-02 15:00:00 TS 7.06078 132.252 main 629 585 P_P______PPP__ WP211949 6.89999 132.085 50 0 7.35000 132.558 2 48 996 6.89999 132.085 TC 50 7.44708 132.639 2 45 6.89999 132.085 50 994 300 9 287
1949335N06138 1949 102 WP MM BETTY 1949-12-02 18:00:00 TS 7.19241 131.854 main 585 540 O_O______OPO__ jtwc_wp WP211949 7.00000 131.600 60 0 7.40000 132.300 3 58 996 7.00000 131.600 TC 60 7.68523 132.273 2 50 7.00000 131.600 60 989 300 8 288
1949335N06138 1949 102 WP MM BETTY 1949-12-02 21:00:00 TS 7.30107 131.513 main 540 507 P_P______PPP__ WP211949 7.04988 131.200 60 0 7.44994 132.072 3 63 996 7.04988 131.200 TC 60 7.90577 131.895 2 55 7.04988 131.200 60 982 330 7 285
1949335N06138 1949 102 WP MM BETTY 1949-12-03 00:00:00 TS 7.38000 131.140 main 496 452 O_O______OOO__ jtwc_wp WP211949 7.10000 130.800 60 0 7.50000 131.800 4 68 996 7.10000 130.800 TC 60 8.10000 131.500 2 60 7.10000 130.800 60 976 360 8 282
1949335N06138 1949 102 WP MM BETTY 1949-12-03 03:00:00 TS 7.46732 130.698 main 452 397 P_P______PPP__ WP211949 7.17747 130.322 60 0 7.54247 131.437 4 68 996 7.17747 130.322 TC 60 8.26173 131.084 2 60 7.17747 130.322 60 976 300 9 282
1949335N06138 1949 102 WP MM BETTY 1949-12-03 06:00:00 TS 7.57895 130.209 main 397 341 O_O______OPO__ jtwc_wp WP211949 7.30000 129.800 60 0 7.60000 131.000 4 68 996 7.30000 129.800 TC 60 8.39477 130.645 2 60 7.30000 129.800 60 976 240 10 285
1949335N06138 1949 102 WP MM BETTY 1949-12-03 09:00:00 TS 7.73356 129.694 main 341 287 P_P______PPP__ WP211949 7.49249 129.250 60 0 7.68490 130.537 4 68 996 7.49249 129.250 TC 60 8.50543 130.184 2 60 7.49249 129.250 60 976 240 11 287
1949335N06138 1949 102 WP MM BETTY 1949-12-03 12:00:00 TS 7.90000 129.160 main 287 233 O_O______OOO__ jtwc_wp WP211949 7.70000 128.700 60 0 7.80000 130.000 4 68 996 7.70000 128.700 TC 60 8.60000 129.700 2 60 7.70000 128.700 60 977 240 11 286
1949335N06138 1949 102 WP MM BETTY 1949-12-03 15:00:00 TS 8.04064 128.634 main 223 174 P_P______PPP__ WP211949 7.85741 128.192 60 0 7.94996 129.380 4 68 996 7.85741 128.192 TC 60 8.68101 129.213 2 60 7.85741 128.192 60 978 270 11 284
1949335N06138 1949 102 WP MM BETTY 1949-12-03 18:00:00 TS 8.16992 128.100 main 174 129 O_O______OPO__ jtwc_wp WP211949 8.00000 127.700 60 0 8.10000 128.700 4 68 996 8.00000 127.700 TC 60 8.74962 128.702 2 60 8.00000 127.700 60 979 300 11 283
1949335N06138 1949 102 WP MM BETTY 1949-12-03 21:00:00 TS 8.28158 127.567 main 129 67 P_P______PPP__ WP211949 8.13488 127.215 60 0 8.18484 128.022 4 68 996 8.13488 127.215 TC 60 8.81843 128.166 2 60 8.13488 127.215 60 980 300 11 283
1949335N06138 1949 102 WP MM BETTY 1949-12-04 00:00:00 TS 8.42000 127.000 main 67 24 O_O______OOO__ jtwc_wp WP211949 8.30000 126.700 60 0 8.30000 127.300 4 68 997 8.30000 126.700 TC 60 8.90000 127.600 2 60 8.30000 126.700 60 981 300 12 287
1949335N06138 1949 102 WP MM BETTY 1949-12-04 03:00:00 TS 8.63774 126.365 main 24 0 P_P______PPP__ WP211949 8.55001 126.108 57 0 8.52006 126.493 4 63 997 8.55001 126.108 TC 57 9.01861 127.008 2 57 8.55001 126.108 57 982 330 13 290
1949335N06138 1949 102 WP MM BETTY 1949-12-04 06:00:00 TS 8.86996 125.718 main 0 0 O_O______OPO__ jtwc_wp WP211949 8.80000 125.500 55 0 8.80000 125.700 3 58 997 8.80000 125.500 TC 55 9.14979 126.388 2 55 8.80000 125.500 55 983 360 13 288
1949335N06138 1949 102 WP MM BETTY 1949-12-04 09:00:00 TS 9.04913 125.112 main 10 10 P_P______PPP__ WP211949 8.95742 124.935 52 0 9.09236 125.005 3 58 997 8.95742 124.935 TC 52 9.28105 125.748 2 52 8.95742 124.935 52 984 360 12 287
1949335N06138 1949 102 WP MM BETTY 1949-12-04 12:00:00 TS 9.22000 124.540 main 47 22 O_O______OOO__ jtwc_wp WP211949 9.10000 124.400 50 0 9.40000 124.400 3 58 997 9.10000 124.400 TC 50 9.40000 125.100 2 50 9.10000 124.400 50 985 360 12 289
1949335N06138 1949 102 WP MM BETTY 1949-12-04 15:00:00 TS 9.42019 124.001 main 22 0 P_P______PPP__ WP211949 9.29237 123.900 47 0 9.72235 123.870 3 53 997 9.29237 123.900 TC 47 9.50151 124.437 2 47 9.29237 123.900 47 986 360 11 291
1949335N06138 1949 102 WP MM BETTY 1949-12-04 18:00:00 TS 9.61750 123.474 main 0 0 O_O______OPO__ jtwc_wp WP211949 9.50000 123.400 45 0 10.0000 123.400 3 48 998 9.50000 123.400 TC 45 9.58749 123.770 2 45 9.50000 123.400 45 987 360 11 289
1949335N06138 1949 102 WP MM BETTY 1949-12-04 21:00:00 TS 9.78242 122.919 main 0 0 P_P______PPP__ WP211949 9.69248 122.850 42 0 10.1800 122.927 3 48 998 9.69248 122.850 TC 42 9.65468 123.118 2 42 9.69248 122.850 42 988 330 11 287
1949335N06138 1949 102 WP MM BETTY 1949-12-05 00:00:00 TS 9.94000 122.380 main 10 10 O_O______OOO__ jtwc_wp WP211949 9.90000 122.300 40 0 10.3000 122.500 3 48 998 9.90000 122.300 TC 40 9.70000 122.500 2 40 9.90000 122.300 40 989 300 11 288
1949335N06138 1949 102 WP MM BETTY 1949-12-05 03:00:00 TS 10.1126 121.898 main 33 24 P_P______PPP__ WP211949 10.1423 121.807 40 0 10.4149 122.135 3 48 998 10.1423 121.807 TC 40 9.72106 121.935 2 37 10.1423 121.807 40 989 300 10 290
1949335N06138 1949 102 WP MM BETTY 1949-12-05 06:00:00 TS 10.2844 121.421 main 55 55 O_O______OPO__ jtwc_wp WP211949 10.4000 121.300 40 0 10.5000 121.800 3 48 998 10.4000 121.300 TC 40 9.72187 121.405 2 35 10.4000 121.300 40 990 300 11 289
1949335N06138 1949 102 WP MM BETTY 1949-12-05 09:00:00 TS 10.4619 120.891 main 110 77 P_P______PPP__ WP211949 10.6800 120.700 35 0 10.5574 121.457 3 48 998 10.6800 120.700 TC 35 9.71177 120.897 2 32 10.6800 120.700 35 991 270 11 287
1949335N06138 1949 102 WP MM BETTY 1949-12-05 12:00:00 TS 10.6000 120.360 main 77 31 O_O______OOO__ jtwc_wp WP211949 10.9000 120.100 30 -1 10.6000 121.100 3 48 998 10.9000 120.100 TC 30 9.70000 120.400 1 30 10.9000 120.100 30 992 240 10 281
1949335N06138 1949 102 WP MM BETTY 1949-12-05 15:00:00 TS 10.6600 119.859 main 31 0 P_P______PPP__ WP211949 10.9874 119.570 30 -1 10.6499 120.715 3 48 998 10.9874 119.570 TC 30 9.68777 119.868 1 28 10.9874 119.570 30 992 240 10 275
1949335N06138 1949 102 WP MM BETTY 1949-12-05 18:00:00 TS 10.6755 119.389 main 0 0 O_O______OPO__ jtwc_wp WP211949 11.0000 119.100 30 -1 10.7000 120.300 3 48 998 11.0000 119.100 TC 30 9.67749 119.347 1 27 11.0000 119.100 30 993 240 9 272
1949335N06138 1949 102 WP MM BETTY 1949-12-05 21:00:00 TS 10.6916 118.952 main 32 32 P_P______PPP__ WP211949 11.0074 118.685 27 -1 10.7575 119.850 3 43 997 11.0074 118.685 TC 27 9.67845 118.853 1 26 11.0074 118.685 27 994 240 8 268
1949335N06138 1949 102 WP MM BETTY 1949-12-06 00:00:00 TS 10.6471 118.582 main 55 55 O_O______OOO__ jtwc_wp WP211949 11.0000 118.300 25 -1 10.8000 119.400 2 38 997 11.0000 118.300 TC 25 9.70000 118.400 1 25 11.0000 118.300 25 995 240 7 262
1949335N06138 1949 102 WP MM BETTY 1949-12-06 03:00:00 TS 10.5887 118.248 main 86 86 P_P______PPP__ WP211949 10.9976 117.905 25 -1 10.8149 119.000 2 38 997 10.9976 117.905 TC 25 9.74898 118.011 1 10.9976 117.905 25 995 240 6 256
1949335N06138 1949 102 WP MM BETTY 1949-12-06 06:00:00 TS 10.4980 117.959 main 98 98 O_O______OPO__ jtwc_wp WP211949 11.0000 117.500 25 -1 10.8000 118.600 2 38 997 11.0000 117.500 TC 25 9.81949 117.663 1 11.0000 117.500 25 996 240 6 242
1949335N06138 1949 102 WP MM BETTY 1949-12-06 09:00:00 TS 10.3314 117.749 main 109 109 __P_______P___ WP211949 -1 10.7574 118.165 2 38 997 TC 9.90528 117.333 1 6 256
1949335N06138 1949 102 WP MM BETTY 1949-12-06 12:00:00 TS 10.3500 117.350 main 141 141 __O_______O___ -1 10.7000 117.700 2 38 997 10.0000 117.000 1 8 273
1949335N06138 1949 102 WP MM BETTY 1949-12-06 15:00:00 TS 10.3795 116.913 main 166 166 __P_______P___ -1 10.6501 117.185 2 38 996 10.1089 116.640 1 9 274
1949335N06138 1949 102 WP MM BETTY 1949-12-06 18:00:00 TS 10.4111 116.486 main 195 195 __O_______P___ -1 10.6000 116.700 2 38 996 10.2223 116.273 1 8 274
1949335N06138 1949 102 WP MM BETTY 1949-12-06 21:00:00 TS 10.4372 116.111 main 227 227 __P_______P___ -1 10.5499 116.328 2 38 996 10.3245 115.894 1 7 273
1949335N06138 1949 102 WP MM BETTY 1949-12-07 00:00:00 TS 10.4500 115.750 main 258 251 __O_______O___ -1 10.5000 116.000 2 38 996 10.4000 115.500 1 7 270
1949335N06138 1949 102 WP MM BETTY 1949-12-07 03:00:00 TS 10.4375 115.384 main 285 285 __P_______P___ -1 10.4424 115.657 2 38 996 10.4325 115.110 1 7 268
1949335N06138 1949 102 WP MM BETTY 1949-12-07 06:00:00 TS 10.4185 115.001 main 321 321 __O_______P___ -1 10.4000 115.300 2 38 996 10.4371 114.702 1 8 268
1949335N06138 1949 102 WP MM BETTY 1949-12-07 09:00:00 TS 10.4115 114.588 main 358 358 __P_______P___ -1 10.4000 114.908 2 38 996 10.4231 114.269 1 8 269
1949335N06138 1949 102 WP MM BETTY 1949-12-07 12:00:00 TS 10.4000 114.150 main 395 395 __O_______O___ -1 10.4000 114.500 2 38 996 10.4000 113.800 1 9 267
1949335N06138 1949 102 WP MM BETTY 1949-12-07 15:00:00 TS 10.3660 113.670 main 443 443 __P_______P___ -1 10.3574 114.115 2 38 996 10.3746 113.225 1 10 265
1949335N06138 1949 102 WP MM BETTY 1949-12-07 18:00:00 TS 10.3217 113.162 main 462 412 __O_______P___ -1 10.3000 113.700 2 38 996 10.3434 112.625 1 10 265
1949335N06138 1949 102 WP MM BETTY 1949-12-07 21:00:00 TS 10.2826 112.639 main 402 363 __P_______P___ -1 10.2500 113.215 2 38 996 10.3153 112.062 1 10 266
1949335N06138 1949 102 WP MM BETTY 1949-12-08 00:00:00 TS 10.2500 112.150 main 363 330 __O_______O___ -1 10.2000 112.700 2 38 997 10.3000 111.600 1 9 266
1949335N06138 1949 102 WP MM BETTY 1949-12-08 03:00:00 TS 10.2262 111.757 main 330 293 __P_______P___ -1 10.1424 112.200 2 38 997 10.3101 111.313 1 7 267
1949335N06138 1949 102 WP MM BETTY 1949-12-08 06:00:00 TS 10.2172 111.415 main 293 265 __O_______P___ -1 10.1000 111.700 2 38 997 10.3343 111.130 1 7 270
1949335N06138 1949 102 WP MM BETTY 1949-12-08 09:00:00 TS 10.2220 111.092 main 265 238 __P_______P___ -1 10.0775 111.177 2 38 997 10.3665 111.007 1 6 273
1949335N06138 1949 102 WP MM BETTY 1949-12-08 12:00:00 TS 10.2500 110.800 main 232 205 __O_______O___ -1 10.1000 110.700 2 38 997 10.4000 110.900 1 6 279
1949335N06138 1949 102 WP MM BETTY 1949-12-08 15:00:00 TS 10.3087 110.530 main 205 180 __P_______P___ -1 10.1924 110.305 2 33 997 10.4249 110.755 1 5 284
1949335N06138 1949 102 WP MM BETTY 1949-12-08 18:00:00 TS 10.3749 110.307 main 180 164 __O_______P___ -1 10.3000 110.000 1 29 998 10.4499 110.615 1 4 284
1949335N06138 1949 102 WP MM BETTY 1949-12-08 21:00:00 TS 10.4124 110.119 main 164 156 __P_______P___ -1 10.3499 109.770 1 29 998 10.4749 110.467 1 4 282
1949335N06138 1949 102 WP MM BETTY 1949-12-09 00:00:00 TS 10.4500 109.950 main 148 133 __O_______O___ -1 10.4000 109.600 1 29 998 10.5000 110.300 1 3 285
1949335N06138 1949 102 WP MM BETTY 1949-12-09 03:00:00 TS 10.5006 109.779 main 133 111 __P_______P___ -1 10.4925 109.450 1 29 998 10.5087 110.109 1 4 288
1949335N06138 1949 102 WP MM BETTY 1949-12-09 06:00:00 TS 10.5600 109.597 main 111 99 __O_______P___ -1 10.6000 109.300 1 29 998 10.5199 109.895 1 4 288
1949335N06138 1949 102 WP MM BETTY 1949-12-09 09:00:00 TS 10.6268 109.379 main 99 78 __P_______P___ -1 10.7075 109.100 1 29 998 10.5462 109.659 1 5 288
1949335N06138 1949 102 WP MM BETTY 1949-12-09 12:00:00 TS 10.7000 109.150 main 78 49 __O_______O___ -1 10.8000 108.900 1 29 998 10.6000 109.400 1 5 288
1949335N06138 1949 102 WP MM BETTY 1949-12-09 15:00:00 TS 10.7701 108.931 main 49 33 __P_______P___ -1 10.8500 108.742 1 29 998 10.6902 109.120 1 5 290
1949335N06138 1949 102 WP MM BETTY 1949-12-09 18:00:00 TS 10.8616 108.696 main 33 15 __O_______P___ -1 10.9000 108.600 1 29 998 10.8103 108.823 1 5 295
1949335N06138 1949 102 WP MM BETTY 1949-12-09 21:00:00 TS 10.9784 108.471 main 15 0 __P_______P___ -1 10.9925 108.450 1 999 10.9503 108.514 1 5 300
1949335N06138 1949 102 WP MM BETTY 1949-12-10 00:00:00 TS 11.1000 108.275 main 0 0 __O_______O___ -1 11.1000 108.300 0 1000 11.1000 108.200 1 4 305
1949335N06138 1949 102 WP MM BETTY 1949-12-10 03:00:00 TS 11.2025 108.150 main 0 0 __P___________ -1 11.2025 108.150 0 1000 1 3 307
1949335N06138 1949 102 WP MM BETTY 1949-12-10 06:00:00 TS 11.3000 108.000 main 0 __O___________ -1 11.3000 108.000 0 1000 1 4 303

Digital Typhoon Data and Search

About IBTrACS Database

This database is a web-friendly format of International Best Track Archive for Climate Stewardship (IBTrACS), a global best track data archive curated by NOAA dating back to 1842.

Updated: 2021-10-25